createdAt,value
2022-10-05T00:00:01.136Z,1009.49
2022-10-05T00:01:01.128Z,1009.47
2022-10-05T00:02:01.195Z,1009.46
2022-10-05T00:03:01.099Z,1009.43
2022-10-05T00:04:01.173Z,1009.42
2022-10-05T00:05:01.136Z,1009.40
2022-10-05T00:06:01.068Z,1009.39
2022-10-05T00:07:01.055Z,1009.38
2022-10-05T00:08:01.105Z,1009.36
2022-10-05T00:09:01.052Z,1009.36
2022-10-05T00:10:01.025Z,1009.33
2022-10-05T00:11:01.037Z,1009.31
2022-10-05T00:12:01.001Z,1009.27
2022-10-05T00:13:00.993Z,1009.25
2022-10-05T00:14:00.985Z,1009.22
2022-10-05T00:15:00.993Z,1009.19
2022-10-05T00:16:01.137Z,1009.18
2022-10-05T00:17:01.018Z,1009.16
2022-10-05T00:18:00.939Z,1009.17
2022-10-05T00:19:00.928Z,1009.15
2022-10-05T00:20:00.925Z,1009.13
2022-10-05T00:21:00.935Z,1009.10
2022-10-05T00:22:00.902Z,1009.07
2022-10-05T00:23:00.892Z,1009.05
2022-10-05T00:24:00.903Z,1009.02
2022-10-05T00:25:00.871Z,1009.01
2022-10-05T00:26:00.882Z,1009.00
2022-10-05T00:27:00.861Z,1008.99
2022-10-05T00:28:00.908Z,1009.00
2022-10-05T00:29:00.827Z,1008.99
2022-10-05T00:30:00.831Z,1008.99
2022-10-05T00:31:00.811Z,1009.00
2022-10-05T00:32:00.866Z,1009.00
2022-10-05T00:33:00.796Z,1009.02
2022-10-05T00:34:00.769Z,1009.03
2022-10-05T00:35:00.757Z,1009.04
2022-10-05T00:36:00.758Z,1009.05
2022-10-05T00:37:00.747Z,1009.04
2022-10-05T00:38:00.740Z,1009.05
2022-10-05T00:39:00.722Z,1009.06
2022-10-05T00:40:00.708Z,1009.07
2022-10-05T00:41:00.702Z,1009.08
2022-10-05T00:42:00.692Z,1009.07
2022-10-05T00:43:00.690Z,1009.06
2022-10-05T00:44:00.670Z,1009.06
2022-10-05T00:45:00.658Z,1009.03
2022-10-05T00:46:00.673Z,1009.01
2022-10-05T00:47:00.626Z,1008.97
2022-10-05T00:48:00.613Z,1008.95
2022-10-05T00:49:00.630Z,1008.91
2022-10-05T00:50:00.667Z,1008.88
2022-10-05T00:51:00.594Z,1008.86
2022-10-05T00:52:00.578Z,1008.82
2022-10-05T00:53:00.565Z,1008.81
2022-10-05T00:54:00.575Z,1008.79
2022-10-05T00:55:00.555Z,1008.79
2022-10-05T00:56:00.551Z,1008.80
2022-10-05T00:57:00.532Z,1008.80
2022-10-05T00:58:00.528Z,1008.79
2022-10-05T00:59:00.512Z,1008.80
2022-10-05T01:00:00.511Z,1008.81
2022-10-05T01:01:00.595Z,1008.80
2022-10-05T01:02:00.597Z,1008.82
2022-10-05T01:03:00.456Z,1008.84
2022-10-05T01:04:00.473Z,1008.85
2022-10-05T01:05:00.449Z,1008.86
2022-10-05T01:06:00.428Z,1008.87
2022-10-05T01:07:00.423Z,1008.88
2022-10-05T01:08:00.403Z,1008.88
2022-10-05T01:09:00.397Z,1008.87
2022-10-05T01:10:00.387Z,1008.85
2022-10-05T05:01:07.090Z,1008.64
2022-10-05T05:02:07.918Z,1008.65
2022-10-05T05:03:07.910Z,1008.65
2022-10-05T05:04:07.996Z,1008.66
2022-10-05T05:05:07.895Z,1008.67
2022-10-05T05:06:22.380Z,1008.67
2022-10-05T05:07:07.877Z,1008.66
2022-10-05T05:08:07.796Z,1008.65
2022-10-05T05:09:07.791Z,1008.65
2022-10-05T05:10:07.782Z,1008.63
2022-10-05T05:11:10.356Z,1008.61
2022-10-05T05:12:07.800Z,1008.62
2022-10-05T05:13:07.746Z,1008.62
2022-10-05T05:14:07.732Z,1008.63
2022-10-05T05:15:07.727Z,1008.66
2022-10-05T05:16:07.772Z,1008.66
2022-10-05T05:17:12.878Z,1008.66
2022-10-05T05:18:07.716Z,1008.70
2022-10-05T05:19:07.699Z,1008.70
2022-10-05T05:20:07.668Z,1008.69
2022-10-05T05:21:07.661Z,1008.68
2022-10-05T05:22:07.654Z,1008.69
2022-10-05T05:23:07.655Z,1008.70
2022-10-05T05:24:07.624Z,1008.72
2022-10-05T05:25:07.621Z,1008.73
2022-10-05T05:26:07.605Z,1008.75
2022-10-05T05:27:07.598Z,1008.76
2022-10-05T05:28:08.677Z,1008.77
2022-10-05T05:29:07.629Z,1008.80
2022-10-05T05:30:07.564Z,1008.81
2022-10-05T05:31:07.646Z,1008.82
2022-10-05T05:32:07.541Z,1008.81
2022-10-05T05:33:07.544Z,1008.83
2022-10-05T05:34:07.531Z,1008.83
2022-10-05T05:35:07.511Z,1008.84
2022-10-05T05:36:07.501Z,1008.85
2022-10-05T05:37:07.488Z,1008.86
2022-10-05T05:38:07.502Z,1008.87
2022-10-05T05:39:07.475Z,1008.88
2022-10-05T05:40:07.459Z,1008.89
2022-10-05T05:41:07.451Z,1008.89
2022-10-05T05:42:07.458Z,1008.90
2022-10-05T05:43:07.424Z,1008.90
2022-10-05T05:44:07.413Z,1008.90
2022-10-05T05:45:07.406Z,1008.91
2022-10-05T05:46:07.389Z,1008.94
2022-10-05T05:47:07.855Z,1008.94
2022-10-05T05:48:07.405Z,1008.95
2022-10-05T05:49:07.354Z,1008.96
2022-10-05T05:50:07.953Z,1008.99
2022-10-05T05:51:07.356Z,1009.00
2022-10-05T05:52:07.324Z,1009.01
2022-10-05T05:53:07.313Z,1009.01
2022-10-05T05:54:07.324Z,1009.00
2022-10-05T05:55:07.292Z,1008.99
2022-10-05T05:56:07.276Z,1008.98
2022-10-05T05:57:07.276Z,1008.98
2022-10-05T05:58:07.296Z,1008.99
2022-10-05T05:59:07.261Z,1008.98
2022-10-05T06:00:07.237Z,1008.99
2022-10-05T06:01:13.184Z,1008.98
2022-10-05T06:02:07.285Z,1008.96
2022-10-05T06:03:07.377Z,1008.96
2022-10-05T06:04:07.209Z,1008.95
2022-10-05T06:05:07.185Z,1008.93
2022-10-05T06:06:07.167Z,1008.90
2022-10-05T06:07:07.169Z,1008.91
2022-10-05T06:08:07.170Z,1008.92
2022-10-05T06:09:07.150Z,1008.91
2022-10-05T06:10:07.145Z,1008.89
2022-10-05T06:11:07.118Z,1008.87
2022-10-05T06:12:07.106Z,1008.90
2022-10-05T06:13:07.094Z,1008.86
2022-10-05T06:14:07.107Z,1008.86
2022-10-05T06:15:07.073Z,1008.98
2022-10-05T06:16:07.091Z,1008.97
2022-10-05T06:17:07.048Z,1008.90
2022-10-05T06:18:07.044Z,1008.92
2022-10-05T06:19:07.031Z,1008.93
2022-10-05T06:20:07.018Z,1008.97
2022-10-05T06:21:07.017Z,1008.95
2022-10-05T06:22:07.016Z,1008.94
2022-10-05T06:23:06.987Z,1008.98
2022-10-05T06:24:06.998Z,1009.02
2022-10-05T06:25:06.970Z,1009.01
2022-10-05T06:26:10.530Z,1008.98
2022-10-05T06:27:06.944Z,1009.05
2022-10-05T06:28:06.995Z,1009.03
2022-10-05T06:29:06.924Z,1008.99
2022-10-05T06:30:06.942Z,1009.00
2022-10-05T06:31:06.997Z,1009.01
2022-10-05T06:32:06.959Z,1008.98
2022-10-05T06:33:06.887Z,1008.97
2022-10-05T06:34:06.863Z,1008.92
2022-10-05T06:35:06.857Z,1008.96
2022-10-05T06:36:06.877Z,1008.92
2022-10-05T06:37:06.843Z,1008.93
2022-10-05T06:38:06.820Z,1008.97
2022-10-05T06:39:06.820Z,1008.96
2022-10-05T06:40:06.797Z,1008.98
2022-10-05T06:41:06.789Z,1008.96
2022-10-05T06:42:06.836Z,1008.94
2022-10-05T06:43:06.772Z,1008.96
2022-10-05T06:44:06.758Z,1008.95
2022-10-05T06:45:06.746Z,1008.96
2022-10-05T06:46:06.793Z,1008.96
2022-10-05T06:47:06.725Z,1008.98
2022-10-05T06:48:06.737Z,1008.94
2022-10-05T06:49:06.708Z,1008.92
2022-10-05T06:50:06.698Z,1008.98
2022-10-05T06:51:06.688Z,1008.98
2022-10-05T06:52:06.673Z,1008.97
2022-10-05T06:53:06.669Z,1008.98
2022-10-05T06:54:06.675Z,1008.98
2022-10-05T06:55:09.599Z,1008.99
2022-10-05T06:56:06.636Z,1009.03
2022-10-05T06:57:06.615Z,1009.08
2022-10-05T06:58:06.635Z,1009.13
2022-10-05T06:59:06.595Z,1009.07
2022-10-05T07:00:06.580Z,1009.08
2022-10-05T07:01:06.646Z,1009.07
2022-10-05T07:02:06.594Z,1009.05
2022-10-05T07:03:06.565Z,1009.03
2022-10-05T07:04:06.542Z,1009.05
2022-10-05T07:05:06.534Z,1009.05
2022-10-05T07:06:06.522Z,1009.05
2022-10-05T07:07:06.513Z,1009.03
2022-10-05T07:08:06.497Z,1009.03
2022-10-05T07:09:06.507Z,1009.05
2022-10-05T07:10:06.488Z,1009.06
2022-10-05T07:11:06.471Z,1009.07
2022-10-05T07:12:06.937Z,1009.10
2022-10-05T07:13:06.498Z,1009.09
2022-10-05T07:14:06.454Z,1009.10
2022-10-05T07:15:06.439Z,1009.16
2022-10-05T07:16:06.516Z,1009.13
2022-10-05T07:17:06.401Z,1009.09
2022-10-05T07:18:06.403Z,1009.11
2022-10-05T07:19:06.387Z,1009.12
2022-10-05T07:20:06.395Z,1009.17
2022-10-05T07:21:06.378Z,1009.17
2022-10-05T07:23:06.337Z,1009.12
2022-10-05T07:24:06.331Z,1009.14
2022-10-05T07:25:06.314Z,1009.14
2022-10-05T07:26:06.329Z,1009.14
2022-10-05T07:27:06.297Z,1009.14
2022-10-05T07:28:06.355Z,1009.14
2022-10-05T07:29:06.272Z,1009.17
2022-10-05T07:30:06.260Z,1009.19
2022-10-05T07:31:06.323Z,1009.19
2022-10-05T07:32:06.252Z,1009.15
2022-10-05T07:33:06.225Z,1009.14
2022-10-05T07:34:06.213Z,1009.16
2022-10-05T07:35:06.205Z,1009.14
2022-10-05T07:36:06.198Z,1009.10
2022-10-05T07:37:06.191Z,1009.12
2022-10-05T07:38:06.186Z,1009.12
2022-10-05T07:39:06.160Z,1009.11
2022-10-05T07:40:06.165Z,1009.11
2022-10-05T07:41:06.144Z,1009.10
2022-10-05T07:42:06.137Z,1009.10
2022-10-05T07:43:06.140Z,1009.10
2022-10-05T07:44:11.651Z,1009.11
2022-10-05T07:45:06.127Z,1009.11
2022-10-05T07:46:06.162Z,1009.08
2022-10-05T07:47:06.074Z,1009.03
2022-10-05T07:48:06.091Z,1009.07
2022-10-05T07:49:06.076Z,1009.04
2022-10-05T07:50:06.067Z,1009.05
2022-10-05T07:51:06.032Z,1009.04
2022-10-05T07:52:06.029Z,1009.05
2022-10-05T07:53:06.010Z,1009.04
2022-10-05T07:54:06.002Z,1009.03
2022-10-05T07:55:06.012Z,1009.05
2022-10-05T07:56:05.991Z,1009.06
2022-10-05T07:57:05.965Z,1009.10
2022-10-05T07:58:05.957Z,1009.08
2022-10-05T07:59:05.956Z,1009.07
2022-10-05T08:00:05.971Z,1009.12
2022-10-05T08:01:05.955Z,1009.10
2022-10-05T08:02:06.084Z,1009.11
2022-10-05T08:03:05.934Z,1009.12
2022-10-05T08:04:05.888Z,1009.10
2022-10-05T08:05:05.901Z,1009.11
2022-10-05T08:06:05.873Z,1009.15
2022-10-05T08:07:05.867Z,1009.12
2022-10-05T08:08:05.920Z,1009.12
2022-10-05T08:09:05.835Z,1009.12
2022-10-05T08:10:05.830Z,1009.15
2022-10-05T08:11:05.834Z,1009.15
2022-10-05T08:12:05.798Z,1009.13
2022-10-05T08:13:05.793Z,1009.11
2022-10-05T08:14:05.782Z,1009.09
2022-10-05T08:15:05.829Z,1009.09
2022-10-05T08:16:05.876Z,1009.10
2022-10-05T08:17:05.743Z,1009.09
2022-10-05T08:18:05.752Z,1009.09
2022-10-05T08:19:05.756Z,1009.07
2022-10-05T08:20:05.722Z,1009.05
2022-10-05T08:21:05.702Z,1009.06
2022-10-05T08:22:05.703Z,1009.05
2022-10-05T08:23:05.698Z,1009.06
2022-10-05T08:24:05.677Z,1009.05
2022-10-05T08:25:05.662Z,1009.05
2022-10-05T08:26:05.668Z,1009.03
2022-10-05T08:27:05.655Z,1009.03
2022-10-05T08:28:05.667Z,1009.03
2022-10-05T08:29:08.207Z,1009.01
2022-10-05T08:30:05.607Z,1009.04
2022-10-05T08:31:05.633Z,1009.00
2022-10-05T08:32:05.607Z,1008.99
2022-10-05T08:33:05.572Z,1008.99
2022-10-05T08:34:05.577Z,1008.99
2022-10-05T08:35:05.554Z,1009.03
2022-10-05T08:36:05.553Z,1008.98
2022-10-05T08:37:05.552Z,1008.99
2022-10-05T08:38:05.532Z,1008.98
2022-10-05T08:39:05.510Z,1008.98
2022-10-05T08:40:05.495Z,1008.97
2022-10-05T08:41:05.488Z,1008.96
2022-10-05T08:42:05.480Z,1009.00
2022-10-05T08:43:05.485Z,1009.00
2022-10-05T08:44:05.472Z,1008.98
2022-10-05T08:45:05.440Z,1008.98
2022-10-05T08:46:05.510Z,1008.97
2022-10-05T08:47:05.417Z,1008.97
2022-10-05T08:48:05.451Z,1008.98
2022-10-05T08:49:05.398Z,1008.96
2022-10-05T08:50:05.407Z,1008.97
2022-10-05T08:51:05.376Z,1008.96
2022-10-05T08:52:05.374Z,1008.96
2022-10-05T08:53:05.357Z,1008.96
2022-10-05T08:54:05.369Z,1008.93
2022-10-05T08:55:05.333Z,1008.91
2022-10-05T08:56:05.327Z,1008.90
2022-10-05T08:57:05.318Z,1008.86
2022-10-05T08:58:05.320Z,1008.86
2022-10-05T08:59:05.318Z,1008.87
2022-10-05T09:00:05.282Z,1008.85
2022-10-05T09:01:05.368Z,1008.86
2022-10-05T09:02:05.371Z,1008.88
2022-10-05T09:03:05.246Z,1008.89
2022-10-05T09:04:05.250Z,1008.90
2022-10-05T09:05:05.251Z,1008.89
2022-10-05T09:06:05.250Z,1008.87
2022-10-05T09:07:05.211Z,1008.87
2022-10-05T09:08:05.194Z,1008.92
2022-10-05T09:09:05.178Z,1008.87
2022-10-05T09:10:05.193Z,1008.86
2022-10-05T09:11:05.192Z,1008.85
2022-10-05T09:12:05.153Z,1008.86
2022-10-05T09:13:05.166Z,1008.86
2022-10-05T09:14:05.147Z,1008.84
2022-10-05T09:15:24.973Z,1008.87
2022-10-05T09:16:05.325Z,1008.90
2022-10-05T09:17:05.112Z,1008.92
2022-10-05T09:18:05.108Z,1008.91
2022-10-05T09:19:05.069Z,1008.90
2022-10-05T09:20:05.062Z,1008.90
2022-10-05T09:21:05.048Z,1008.93
2022-10-05T09:22:05.055Z,1008.93
2022-10-05T09:23:05.029Z,1008.92
2022-10-05T09:24:05.019Z,1008.91
2022-10-05T09:25:05.011Z,1008.90
2022-10-05T09:26:04.994Z,1008.91
2022-10-05T09:27:05.017Z,1008.92
2022-10-05T09:28:05.042Z,1008.91
2022-10-05T09:29:04.955Z,1008.90
2022-10-05T09:30:04.960Z,1008.90
2022-10-05T09:31:05.015Z,1008.89
2022-10-05T09:32:04.933Z,1008.88
2022-10-05T09:33:04.938Z,1008.85
2022-10-05T09:34:04.920Z,1008.85
2022-10-05T09:35:04.908Z,1008.86
2022-10-05T09:36:04.907Z,1008.89
2022-10-05T09:37:04.874Z,1008.88
2022-10-05T09:38:04.868Z,1008.86
2022-10-05T09:39:04.852Z,1008.85
2022-10-05T09:40:04.843Z,1008.84
2022-10-05T09:41:04.846Z,1008.85
2022-10-05T09:42:04.838Z,1008.84
2022-10-05T09:43:04.816Z,1008.88
2022-10-05T09:44:04.800Z,1008.84
2022-10-05T09:45:04.812Z,1008.84
2022-10-05T09:46:04.831Z,1008.82
2022-10-05T09:47:04.765Z,1008.83
2022-10-05T09:48:04.763Z,1008.82
2022-10-05T09:49:04.751Z,1008.77
2022-10-05T09:50:04.746Z,1008.77
2022-10-05T09:51:04.865Z,1008.76
2022-10-05T09:52:04.710Z,1008.74
2022-10-05T09:53:04.704Z,1008.74
2022-10-05T09:54:04.689Z,1008.72
2022-10-05T09:55:04.679Z,1008.70
2022-10-05T09:56:04.680Z,1008.69
2022-10-05T09:57:04.651Z,1008.71
2022-10-05T09:58:04.647Z,1008.70
2022-10-05T09:59:04.631Z,1008.70
2022-10-05T10:00:04.737Z,1008.67
2022-10-05T10:01:09.594Z,1008.67
2022-10-05T10:02:04.717Z,1008.62
2022-10-05T10:03:04.664Z,1008.60
2022-10-05T10:04:04.573Z,1008.63
2022-10-05T10:05:04.568Z,1008.59
2022-10-05T10:06:04.573Z,1008.59
2022-10-05T10:07:04.568Z,1008.58
2022-10-05T10:08:04.543Z,1008.55
2022-10-05T10:09:04.518Z,1008.50
2022-10-05T10:10:04.516Z,1008.50
2022-10-05T10:11:04.512Z,1008.50
2022-10-05T10:12:04.500Z,1008.49
2022-10-05T10:13:04.491Z,1008.53
2022-10-05T10:14:04.470Z,1008.52
2022-10-05T10:15:04.458Z,1008.52
2022-10-05T10:16:04.586Z,1008.51
2022-10-05T10:17:04.482Z,1008.49
2022-10-05T10:18:04.434Z,1008.52
2022-10-05T10:19:04.418Z,1008.49
2022-10-05T10:20:04.406Z,1008.47
2022-10-05T10:21:04.392Z,1008.48
2022-10-05T10:22:04.388Z,1008.49
2022-10-05T10:23:04.396Z,1008.48
2022-10-05T10:24:04.369Z,1008.49
2022-10-05T10:25:04.381Z,1008.49
2022-10-05T10:26:04.347Z,1008.51
2022-10-05T10:27:04.326Z,1008.50
2022-10-05T10:28:04.356Z,1008.49
2022-10-05T10:29:04.321Z,1008.48
2022-10-05T10:30:04.302Z,1008.48
2022-10-05T10:31:04.331Z,1008.44
2022-10-05T10:32:04.273Z,1008.47
2022-10-05T10:33:04.265Z,1008.46
2022-10-05T10:34:04.258Z,1008.47
2022-10-05T10:35:04.265Z,1008.49
2022-10-05T10:36:06.848Z,1008.51
2022-10-05T10:37:04.221Z,1008.52
2022-10-05T10:38:04.207Z,1008.51
2022-10-05T10:39:04.205Z,1008.51
2022-10-05T10:40:04.190Z,1008.51
2022-10-05T10:41:04.197Z,1008.50
2022-10-05T10:42:04.164Z,1008.51
2022-10-05T10:43:04.152Z,1008.53
2022-10-05T10:44:04.141Z,1008.50
2022-10-05T10:45:04.148Z,1008.50
2022-10-05T10:46:04.738Z,1008.47
2022-10-05T10:47:04.106Z,1008.45
2022-10-05T10:48:04.105Z,1008.48
2022-10-05T10:49:04.085Z,1008.44
2022-10-05T10:50:04.084Z,1008.41
2022-10-05T10:51:04.089Z,1008.42
2022-10-05T10:52:04.059Z,1008.41
2022-10-05T10:53:04.042Z,1008.41
2022-10-05T10:54:04.035Z,1008.40
2022-10-05T10:55:04.021Z,1008.36
2022-10-05T10:56:04.013Z,1008.38
2022-10-05T10:57:04.350Z,1008.32
2022-10-05T10:58:04.021Z,1008.32
2022-10-05T10:59:03.993Z,1008.29
2022-10-05T11:00:03.980Z,1008.27
2022-10-05T11:01:03.977Z,1008.25
2022-10-05T11:02:04.009Z,1008.24
2022-10-05T11:03:04.013Z,1008.20
2022-10-05T11:04:03.929Z,1008.28
2022-10-05T11:05:03.910Z,1008.22
2022-10-05T11:06:03.933Z,1008.18
2022-10-05T11:07:03.924Z,1008.15
2022-10-05T11:08:03.895Z,1008.15
2022-10-05T11:09:03.869Z,1008.12
2022-10-05T11:10:03.869Z,1008.10
2022-10-05T11:11:03.844Z,1008.06
2022-10-05T11:12:03.861Z,1008.07
2022-10-05T11:13:03.854Z,1008.04
2022-10-05T11:14:03.865Z,1008.03
2022-10-05T11:15:03.805Z,1007.98
2022-10-05T11:16:03.930Z,1007.99
2022-10-05T11:17:03.793Z,1008.01
2022-10-05T11:18:09.796Z,1007.97
2022-10-05T11:19:03.756Z,1007.95
2022-10-05T11:20:05.081Z,1008.00
2022-10-05T11:21:03.733Z,1008.04
2022-10-05T11:22:03.735Z,1008.04
2022-10-05T11:23:03.719Z,1008.05
2022-10-05T11:24:03.717Z,1008.00
2022-10-05T11:25:03.698Z,1008.01
2022-10-05T11:26:03.690Z,1007.99
2022-10-05T11:27:03.705Z,1007.98
2022-10-05T11:28:03.761Z,1007.98
2022-10-05T11:29:03.675Z,1007.93
2022-10-05T11:30:03.642Z,1007.92
2022-10-05T11:31:03.677Z,1007.93
2022-10-05T11:32:03.639Z,1007.91
2022-10-05T11:33:03.612Z,1007.91
2022-10-05T11:34:03.620Z,1007.89
2022-10-05T11:35:03.607Z,1007.87
2022-10-05T11:36:03.574Z,1007.81
2022-10-05T11:37:03.568Z,1007.82
2022-10-05T11:38:03.571Z,1007.83
2022-10-05T11:39:03.544Z,1007.81
2022-10-05T11:40:03.550Z,1007.79
2022-10-05T11:41:03.544Z,1007.80
2022-10-05T11:42:03.511Z,1007.79
2022-10-05T11:43:03.503Z,1007.79
2022-10-05T11:44:06.304Z,1007.75
2022-10-05T11:45:03.473Z,1007.75
2022-10-05T11:46:03.516Z,1007.74
2022-10-05T11:47:03.500Z,1007.75
2022-10-05T11:48:03.462Z,1007.73
2022-10-05T11:49:03.438Z,1007.72
2022-10-05T11:50:03.426Z,1007.70
2022-10-05T11:51:03.427Z,1007.68
2022-10-05T11:52:03.412Z,1007.70
2022-10-05T11:53:03.408Z,1007.70
2022-10-05T11:54:03.378Z,1007.68
2022-10-05T11:55:10.969Z,1007.69
2022-10-05T11:56:03.360Z,1007.72
2022-10-05T11:57:03.354Z,1007.68
2022-10-05T11:58:03.341Z,1007.72
2022-10-05T11:59:03.370Z,1007.75
2022-10-05T12:00:03.329Z,1007.67
2022-10-05T12:01:03.306Z,1007.66
2022-10-05T12:02:03.294Z,1007.61
2022-10-05T12:03:03.422Z,1007.61
2022-10-05T12:04:03.388Z,1007.59
2022-10-05T12:05:03.291Z,1007.59
2022-10-05T12:06:03.261Z,1007.60
2022-10-05T12:07:03.248Z,1007.57
2022-10-05T12:08:03.265Z,1007.56
2022-10-05T12:09:03.215Z,1007.58
2022-10-05T12:10:03.219Z,1007.54
2022-10-05T12:11:03.204Z,1007.54
2022-10-05T12:12:03.205Z,1007.52
2022-10-05T12:13:03.187Z,1007.51
2022-10-05T12:14:03.891Z,1007.49
2022-10-05T12:15:03.161Z,1007.51
2022-10-05T12:16:03.267Z,1007.49
2022-10-05T12:17:03.182Z,1007.47
2022-10-05T12:18:03.144Z,1007.46
2022-10-05T12:19:03.140Z,1007.48
2022-10-05T12:20:03.215Z,1007.42
2022-10-05T12:21:03.102Z,1007.38
2022-10-05T12:22:03.101Z,1007.38
2022-10-05T12:23:03.086Z,1007.41
2022-10-05T12:24:03.071Z,1007.38
2022-10-05T12:25:03.051Z,1007.39
2022-10-05T12:26:03.060Z,1007.36
2022-10-05T12:27:03.033Z,1007.35
2022-10-05T12:28:03.065Z,1007.40
2022-10-05T12:29:03.005Z,1007.37
2022-10-05T12:30:03.024Z,1007.38
2022-10-05T12:31:03.034Z,1007.38
2022-10-05T12:32:02.975Z,1007.42
2022-10-05T12:33:02.982Z,1007.37
2022-10-05T12:34:02.974Z,1007.35
2022-10-05T12:35:02.973Z,1007.36
2022-10-05T12:36:02.942Z,1007.35
2022-10-05T12:37:04.425Z,1007.33
2022-10-05T12:38:02.916Z,1007.38
2022-10-05T12:39:02.895Z,1007.38
2022-10-05T12:40:03.491Z,1007.35
2022-10-05T12:41:02.879Z,1007.29
2022-10-05T12:42:02.851Z,1007.33
2022-10-05T12:43:02.849Z,1007.26
2022-10-05T12:44:02.878Z,1007.27
2022-10-05T12:45:02.866Z,1007.24
2022-10-05T12:46:02.873Z,1007.26
2022-10-05T12:47:02.816Z,1007.22
2022-10-05T12:48:02.815Z,1007.23
2022-10-05T12:49:02.812Z,1007.27
2022-10-05T12:50:02.803Z,1007.26
2022-10-05T12:51:02.769Z,1007.27
2022-10-05T12:52:02.803Z,1007.23
2022-10-05T12:53:02.743Z,1007.26
2022-10-05T12:54:02.727Z,1007.22
2022-10-05T12:55:02.722Z,1007.22
2022-10-05T12:56:02.711Z,1007.20
2022-10-05T12:57:02.705Z,1007.23
2022-10-05T12:58:02.715Z,1007.20
2022-10-05T12:59:02.692Z,1007.16
2022-10-05T13:00:02.666Z,1007.15
2022-10-05T13:01:02.721Z,1007.14
2022-10-05T13:02:02.675Z,1007.14
2022-10-05T13:03:02.673Z,1007.09
2022-10-05T13:04:02.623Z,1007.11
2022-10-05T13:05:02.617Z,1007.11
2022-10-05T13:06:03.048Z,1007.10
2022-10-05T13:07:02.590Z,1007.11
2022-10-05T13:08:02.590Z,1007.10
2022-10-05T13:09:02.588Z,1007.12
2022-10-05T13:10:02.569Z,1007.22
2022-10-05T13:11:02.546Z,1007.07
2022-10-05T13:12:02.547Z,1007.11
2022-10-05T13:13:02.531Z,1007.08
2022-10-05T13:14:02.545Z,1007.06
2022-10-05T13:15:02.530Z,1007.06
2022-10-05T13:16:02.631Z,1007.05
2022-10-05T13:17:02.484Z,1007.04
2022-10-05T13:18:02.466Z,1007.00
2022-10-05T13:19:02.472Z,1006.98
2022-10-05T13:20:02.490Z,1006.98
2022-10-05T13:21:02.445Z,1006.93
2022-10-05T13:22:02.426Z,1006.92
2022-10-05T13:23:02.416Z,1006.95
2022-10-05T13:24:02.499Z,1006.91
2022-10-05T13:25:02.400Z,1006.91
2022-10-05T13:26:02.405Z,1006.95
2022-10-05T13:27:02.380Z,1006.92
2022-10-05T13:28:02.429Z,1006.93
2022-10-05T13:29:02.351Z,1006.88
2022-10-05T13:30:02.357Z,1006.90
2022-10-05T13:31:02.403Z,1006.93
2022-10-05T13:32:02.329Z,1006.94
2022-10-05T13:33:02.329Z,1006.94
2022-10-05T13:34:02.290Z,1006.94
2022-10-05T13:35:02.294Z,1006.92
2022-10-05T13:36:02.282Z,1006.92
2022-10-05T13:37:02.307Z,1006.91
2022-10-05T13:38:02.249Z,1006.89
2022-10-05T13:39:02.257Z,1006.90
2022-10-05T13:40:02.230Z,1006.88
2022-10-05T13:41:02.236Z,1006.93
2022-10-05T13:42:02.204Z,1006.89
2022-10-05T13:43:02.225Z,1006.87
2022-10-05T13:44:02.192Z,1006.87
2022-10-05T13:45:02.380Z,1006.87
2022-10-05T13:46:02.250Z,1006.88
2022-10-05T13:47:02.172Z,1006.83
2022-10-05T13:48:02.139Z,1006.81
2022-10-05T13:49:02.142Z,1006.83
2022-10-05T13:50:02.190Z,1006.79
2022-10-05T13:51:02.143Z,1006.82
2022-10-05T13:52:02.103Z,1006.81
2022-10-05T13:53:02.090Z,1006.85
2022-10-05T13:54:02.090Z,1006.76
2022-10-05T13:55:02.121Z,1006.83
2022-10-05T13:56:02.084Z,1006.81
2022-10-05T13:57:02.058Z,1006.82
2022-10-05T13:58:02.042Z,1006.81
2022-10-05T13:59:02.031Z,1006.85
2022-10-05T14:00:02.020Z,1006.85
2022-10-05T14:02:18.364Z,1006.84
2022-10-05T14:03:19.371Z,1006.83
2022-10-05T14:04:19.311Z,1006.84
2022-10-05T14:05:19.272Z,1006.82
2022-10-05T14:06:19.276Z,1006.79
2022-10-05T14:07:19.248Z,1006.77
2022-10-05T14:08:19.285Z,1006.81
2022-10-05T14:09:19.270Z,1006.80
2022-10-05T14:10:19.246Z,1006.77
2022-10-05T14:11:19.215Z,1006.74
2022-10-05T14:12:19.225Z,1006.77
2022-10-05T14:13:19.212Z,1006.76
2022-10-05T14:14:19.194Z,1006.79
2022-10-05T14:15:19.171Z,1006.74
2022-10-05T14:16:19.210Z,1006.74
2022-10-05T14:17:19.188Z,1006.74
2022-10-05T14:18:19.164Z,1006.71
2022-10-05T14:19:19.129Z,1006.72
2022-10-05T14:20:19.128Z,1006.72
2022-10-05T14:21:19.132Z,1006.70
2022-10-05T14:22:19.103Z,1006.69
2022-10-05T14:23:22.450Z,1006.66
2022-10-05T14:24:32.120Z,1006.64
2022-10-05T14:25:19.072Z,1006.64
2022-10-05T14:26:19.071Z,1006.65
2022-10-05T14:27:19.042Z,1006.61
2022-10-05T14:28:19.094Z,1006.57
2022-10-05T14:29:19.027Z,1006.59
2022-10-05T14:30:19.023Z,1006.58
2022-10-05T14:31:19.462Z,1006.57
2022-10-05T14:32:19.071Z,1006.54
2022-10-05T14:33:18.978Z,1006.53
2022-10-05T14:34:18.993Z,1006.54
2022-10-05T14:35:18.960Z,1006.54
2022-10-05T14:36:23.647Z,1006.53
2022-10-05T14:37:18.954Z,1006.53
2022-10-05T14:38:18.939Z,1006.56
2022-10-05T14:39:18.949Z,1006.50
2022-10-05T14:40:18.921Z,1006.47
2022-10-05T14:41:19.092Z,1006.44
2022-10-05T14:42:18.884Z,1006.44
2022-10-05T14:43:18.875Z,1006.44
2022-10-05T14:44:18.871Z,1006.42
2022-10-05T14:45:18.877Z,1006.41
2022-10-05T14:46:23.269Z,1006.38
2022-10-05T14:47:18.846Z,1006.39
2022-10-05T14:48:18.814Z,1006.38
2022-10-05T14:49:18.813Z,1006.37
2022-10-05T14:50:18.818Z,1006.37
2022-10-05T14:51:18.832Z,1006.36
2022-10-05T14:52:18.778Z,1006.32
2022-10-05T14:53:18.763Z,1006.34
2022-10-05T14:54:18.762Z,1006.31
2022-10-05T14:55:18.743Z,1006.27
2022-10-05T14:56:18.757Z,1006.29
2022-10-05T14:57:18.741Z,1006.28
2022-10-05T14:58:18.728Z,1006.28
2022-10-05T14:59:18.700Z,1006.24
2022-10-05T15:00:18.714Z,1006.27
2022-10-05T15:01:18.738Z,1006.28
2022-10-05T15:02:18.795Z,1006.26
2022-10-05T15:03:18.714Z,1006.25
2022-10-05T15:04:18.660Z,1006.23
2022-10-05T15:05:18.670Z,1006.20
2022-10-05T15:06:18.657Z,1006.20
2022-10-05T15:07:18.637Z,1006.19
2022-10-05T15:08:18.614Z,1006.18
2022-10-05T15:09:18.594Z,1006.19
2022-10-05T15:10:18.590Z,1006.16
2022-10-05T15:11:18.582Z,1006.15
2022-10-05T15:12:18.570Z,1006.11
2022-10-05T15:13:18.570Z,1006.08
2022-10-05T15:14:18.544Z,1006.09
2022-10-05T15:15:18.538Z,1006.05
2022-10-05T15:16:19.123Z,1006.03
2022-10-05T15:17:18.517Z,1006.01
2022-10-05T15:18:18.528Z,1006.00
2022-10-05T15:19:18.510Z,1005.99
2022-10-05T15:20:18.484Z,1005.98
2022-10-05T15:21:18.559Z,1005.96
2022-10-05T15:22:18.465Z,1005.95
2022-10-05T15:23:18.498Z,1005.93
2022-10-05T15:24:18.437Z,1005.90
2022-10-05T15:25:18.434Z,1005.91
2022-10-05T15:26:18.595Z,1005.89
2022-10-05T15:27:18.406Z,1005.85
2022-10-05T15:28:18.454Z,1005.83
2022-10-05T15:29:18.388Z,1005.82
2022-10-05T15:30:18.395Z,1005.82
2022-10-05T15:31:18.460Z,1005.77
2022-10-05T15:32:18.359Z,1005.77
2022-10-05T15:33:18.338Z,1005.75
2022-10-05T15:34:18.343Z,1005.76
2022-10-05T15:35:18.317Z,1005.75
2022-10-05T15:36:18.710Z,1005.75
2022-10-05T15:37:18.290Z,1005.76
2022-10-05T15:38:18.297Z,1005.73
2022-10-05T15:39:18.275Z,1005.74
2022-10-05T15:40:18.298Z,1005.70
2022-10-05T15:41:18.261Z,1005.72
2022-10-05T15:42:18.257Z,1005.70
2022-10-05T15:43:18.247Z,1005.70
2022-10-05T15:44:18.232Z,1005.71
2022-10-05T15:45:18.223Z,1005.70
2022-10-05T15:46:18.267Z,1005.71
2022-10-05T15:47:18.198Z,1005.69
2022-10-05T15:48:18.179Z,1005.68
2022-10-05T15:49:18.172Z,1005.68
2022-10-05T15:50:18.168Z,1005.65
2022-10-05T15:51:18.152Z,1005.64
2022-10-05T15:52:18.161Z,1005.61
2022-10-05T15:53:18.137Z,1005.61
2022-10-05T15:54:18.129Z,1005.59
2022-10-05T15:55:18.117Z,1005.57
2022-10-05T15:56:18.138Z,1005.57
2022-10-05T15:57:18.117Z,1005.55